createdAt,value
2018-02-09T00:00:12.239Z,75.00
2018-02-09T00:02:41.353Z,74.94
2018-02-09T00:05:11.230Z,74.54
2018-02-09T00:07:42.479Z,74.79
2018-02-09T00:10:11.594Z,74.82
2018-02-09T00:12:41.706Z,75.06
2018-02-09T00:15:10.842Z,75.04
2018-02-09T00:17:40.299Z,75.19
2018-02-09T00:20:09.455Z,75.05
2018-02-09T00:22:52.331Z,73.67
2018-02-09T00:25:22.083Z,73.47
2018-02-09T00:27:51.796Z,73.83
2018-02-09T00:30:21.651Z,74.45
2018-02-09T00:32:50.749Z,74.64
2018-02-09T00:35:19.863Z,74.94
2018-02-09T00:37:49.745Z,74.63
2018-02-09T00:40:18.851Z,74.96
2018-02-09T00:42:47.965Z,75.03
2018-02-09T00:45:18.428Z,75.11
2018-02-09T00:47:48.307Z,75.17
2018-02-09T00:50:18.177Z,75.10
2018-02-09T00:52:47.302Z,75.08
2018-02-09T00:55:16.395Z,75.20
2018-02-09T00:57:45.517Z,75.75
2018-02-09T01:00:15.406Z,75.65
2018-02-09T01:02:44.515Z,75.93
2018-02-09T01:05:13.650Z,76.11
2018-02-09T01:07:42.741Z,76.07
2018-02-09T01:10:11.860Z,75.75
2018-02-09T01:12:41.602Z,75.70
2018-02-09T01:15:11.350Z,75.71
2018-02-09T01:17:41.225Z,75.77
2018-02-09T01:20:10.375Z,75.76
2018-02-09T01:22:39.455Z,75.80
2018-02-09T01:25:08.563Z,75.61
2018-02-09T01:27:37.661Z,75.50
2018-02-09T01:30:06.756Z,75.46
2018-02-09T01:32:36.645Z,75.42
2018-02-09T01:35:06.523Z,75.22
2018-02-09T01:37:35.644Z,74.91
2018-02-09T01:40:04.763Z,73.96
2018-02-09T01:42:33.907Z,73.69
2018-02-09T01:45:03.020Z,73.91
2018-02-09T01:47:32.134Z,74.02
2018-02-09T01:50:16.625Z,74.44
2018-02-09T01:52:45.730Z,74.87
2018-02-09T01:55:14.841Z,74.85
2018-02-09T01:57:43.970Z,75.08
2018-02-09T02:00:13.859Z,75.13
2018-02-09T02:02:42.984Z,74.78
2018-02-09T02:05:12.066Z,74.49
2018-02-09T02:07:41.190Z,74.47
2018-02-09T02:10:11.083Z,74.29
2018-02-09T02:12:40.207Z,74.13
2018-02-09T02:15:09.314Z,74.04
2018-02-09T02:17:38.426Z,73.77
2018-02-09T02:20:07.555Z,73.61
2018-02-09T02:22:36.724Z,73.80
2018-02-09T02:25:05.835Z,73.72
2018-02-09T02:27:34.928Z,73.42
2018-02-09T02:30:04.046Z,73.52
2018-02-09T02:32:33.167Z,73.71
2018-02-09T02:35:03.058Z,73.70
2018-02-09T02:37:32.170Z,74.13
2018-02-09T02:40:01.286Z,74.09
2018-02-09T02:42:30.377Z,73.23
2018-02-09T02:44:59.504Z,73.21
2018-02-09T02:47:28.602Z,73.05
2018-02-09T02:49:58.561Z,73.27
2018-02-09T02:52:27.678Z,73.20
2018-02-09T02:54:57.570Z,73.24
2018-02-09T02:57:26.664Z,73.28
2018-02-09T02:59:55.781Z,73.38
2018-02-09T03:02:26.265Z,73.29
2018-02-09T03:04:55.565Z,73.04
2018-02-09T03:07:24.675Z,73.09
2018-02-09T03:09:53.797Z,72.20
2018-02-09T03:12:23.686Z,72.26
2018-02-09T03:14:52.798Z,72.46
2018-02-09T03:17:21.888Z,72.84
2018-02-09T03:19:50.998Z,72.87
2018-02-09T03:22:21.030Z,72.03
2018-02-09T03:24:50.897Z,71.48
2018-02-09T03:27:20.024Z,71.98
2018-02-09T03:29:49.905Z,72.36
2018-02-09T03:32:19.010Z,72.49
2018-02-09T03:34:48.101Z,72.70
2018-02-09T03:37:18.005Z,72.80
2018-02-09T03:39:47.106Z,72.47
2018-02-09T03:42:16.227Z,72.44
2018-02-09T03:44:46.056Z,72.57
2018-02-09T03:47:15.933Z,71.33
2018-02-09T03:49:45.042Z,71.24
2018-02-09T03:52:14.160Z,71.67
2018-02-09T03:54:44.022Z,72.16
2018-02-09T03:57:13.129Z,72.16
2018-02-09T03:59:43.018Z,72.06
2018-02-09T04:02:12.136Z,72.15
2018-02-09T04:04:41.267Z,72.14
2018-02-09T04:07:11.131Z,72.41
2018-02-09T04:09:40.262Z,72.44
2018-02-09T04:12:09.366Z,72.80
2018-02-09T04:14:38.485Z,72.46
2018-02-09T04:17:08.354Z,72.61
2018-02-09T04:19:37.706Z,72.46
2018-02-09T04:22:06.811Z,72.64
2018-02-09T04:24:35.930Z,72.86
2018-02-09T04:27:05.045Z,73.55
2018-02-09T04:29:34.891Z,74.18
2018-02-09T04:32:04.751Z,74.34
2018-02-09T04:34:33.884Z,74.62
2018-02-09T04:37:02.994Z,74.69
2018-02-09T04:39:32.114Z,74.87
2018-02-09T04:42:01.209Z,74.20
2018-02-09T04:44:30.427Z,73.87
2018-02-09T04:46:59.522Z,73.87
2018-02-09T04:49:28.621Z,73.82
2018-02-09T04:51:57.757Z,73.82
2018-02-09T04:54:26.870Z,73.46
2018-02-09T04:56:55.984Z,72.67
2018-02-09T04:59:25.851Z,72.67
2018-02-09T05:01:54.964Z,72.61
2018-02-09T05:04:24.056Z,72.39
2018-02-09T05:06:53.241Z,72.47
2018-02-09T05:09:22.369Z,72.63
2018-02-09T05:11:52.255Z,72.48
2018-02-09T05:14:22.130Z,72.13
2018-02-09T05:16:51.243Z,72.37
2018-02-09T05:19:21.181Z,72.49
2018-02-09T05:21:50.311Z,72.66
2018-02-09T05:24:20.174Z,72.90
2018-02-09T05:26:49.284Z,72.36
2018-02-09T05:29:18.376Z,72.74
2018-02-09T05:31:47.539Z,72.98
2018-02-09T05:34:16.649Z,73.48
2018-02-09T05:36:45.749Z,73.10
2018-02-09T05:39:14.886Z,72.87
2018-02-09T05:41:44.021Z,72.99
2018-02-09T05:44:13.126Z,73.01
2018-02-09T05:46:42.355Z,73.21
2018-02-09T05:49:11.476Z,72.80
2018-02-09T05:51:40.627Z,72.12
2018-02-09T05:54:10.586Z,72.56
2018-02-09T05:56:39.738Z,73.20
2018-02-09T05:59:08.877Z,72.48
2018-02-09T06:01:38.779Z,72.20
2018-02-09T06:04:07.895Z,72.17
2018-02-09T06:06:40.120Z,72.53
2018-02-09T06:09:09.220Z,72.16
2018-02-09T06:11:38.378Z,71.61
2018-02-09T06:14:08.248Z,72.01
2018-02-09T06:16:37.361Z,72.57
2018-02-09T06:19:06.496Z,72.77
2018-02-09T06:21:35.914Z,72.34
2018-02-09T06:24:05.059Z,72.48
2018-02-09T06:26:34.174Z,72.91
2018-02-09T06:29:04.050Z,71.98
2018-02-09T06:31:33.154Z,72.37
2018-02-09T06:34:02.254Z,72.80
2018-02-09T06:36:31.378Z,72.47
2018-02-09T06:39:01.238Z,72.72
2018-02-09T06:41:30.349Z,72.77
2018-02-09T06:43:59.457Z,72.67
2018-02-09T06:46:28.573Z,72.19
2018-02-09T06:48:58.447Z,71.85
2018-02-09T06:51:27.584Z,72.27
2018-02-09T06:53:57.449Z,71.82
2018-02-09T06:56:26.565Z,71.81
2018-02-09T06:58:55.671Z,71.94
2018-02-09T07:01:24.842Z,72.16
2018-02-09T07:03:53.936Z,71.34
2018-02-09T07:06:23.054Z,70.62
2018-02-09T07:08:53.682Z,70.92
2018-02-09T07:11:22.786Z,70.39
2018-02-09T07:13:51.933Z,71.01
2018-02-09T07:16:21.790Z,71.14
2018-02-09T07:18:50.924Z,71.25
2018-02-09T07:21:21.522Z,70.98
2018-02-09T07:23:50.661Z,70.67
2018-02-09T07:26:19.771Z,70.15
2018-02-09T07:28:48.894Z,69.84
2018-02-09T07:31:17.982Z,70.06
2018-02-09T07:33:47.096Z,70.66
2018-02-09T07:36:16.210Z,70.39
2018-02-09T07:38:45.342Z,70.54
2018-02-09T07:41:14.460Z,70.78
2018-02-09T07:43:44.807Z,70.83
2018-02-09T07:46:14.667Z,70.78
2018-02-09T07:48:44.547Z,70.85
2018-02-09T07:51:14.837Z,70.67
2018-02-09T07:53:43.954Z,70.80
2018-02-09T07:56:13.052Z,70.89
2018-02-09T07:58:42.183Z,71.01
2018-02-09T08:01:12.063Z,71.18
2018-02-09T08:03:41.928Z,71.28
2018-02-09T08:06:11.068Z,71.14
2018-02-09T08:08:40.173Z,70.83
2018-02-09T08:11:10.209Z,70.81
2018-02-09T08:13:39.316Z,70.80
2018-02-09T08:16:09.210Z,70.63
2018-02-09T08:18:38.330Z,70.65
2018-02-09T08:21:07.449Z,70.74
2018-02-09T08:23:37.385Z,70.51
2018-02-09T08:26:06.775Z,70.53
2018-02-09T08:28:36.138Z,69.12
2018-02-09T08:31:06.010Z,69.17
2018-02-09T08:33:35.124Z,69.64
2018-02-09T08:36:04.231Z,69.95
2018-02-09T08:38:33.325Z,70.24
2018-02-09T08:41:02.458Z,70.38
2018-02-09T08:43:31.586Z,70.70
2018-02-09T08:46:01.760Z,70.70
2018-02-09T08:48:31.686Z,70.82
2018-02-09T08:51:01.566Z,70.99
2018-02-09T08:53:30.691Z,70.61
2018-02-09T08:56:00.553Z,70.51
2018-02-09T08:58:29.666Z,70.50
2018-02-09T09:00:58.769Z,70.49
2018-02-09T09:03:27.907Z,70.32
2018-02-09T09:05:57.012Z,70.43
2018-02-09T09:08:26.131Z,70.39
2018-02-09T09:10:55.219Z,70.37
2018-02-09T09:13:24.361Z,70.49
2018-02-09T09:15:53.478Z,70.27
2018-02-09T09:18:23.368Z,70.13
2018-02-09T09:20:52.470Z,70.36
2018-02-09T09:23:21.592Z,70.28
2018-02-09T09:25:50.689Z,70.34
2018-02-09T09:28:19.814Z,70.27
2018-02-09T09:30:48.924Z,70.07
2018-02-09T09:33:18.026Z,70.00
2018-02-09T09:35:47.123Z,69.92
2018-02-09T09:38:16.238Z,69.89
2018-02-09T09:40:47.087Z,69.88
2018-02-09T09:43:16.190Z,69.71
2018-02-09T09:45:45.735Z,69.75
2018-02-09T09:48:14.845Z,69.75
2018-02-09T09:50:43.959Z,69.75
2018-02-09T09:53:13.103Z,69.82
2018-02-09T09:55:42.201Z,69.76
2018-02-09T09:58:12.091Z,69.62
2018-02-09T10:00:41.206Z,69.54
2018-02-09T10:03:10.314Z,69.30
2018-02-09T10:05:39.430Z,69.34
2018-02-09T10:08:08.572Z,69.34
2018-02-09T10:10:37.659Z,69.18
2018-02-09T10:13:06.793Z,68.73
2018-02-09T10:15:36.397Z,68.82
2018-02-09T10:18:05.490Z,68.78
2018-02-09T10:20:34.611Z,68.86
2018-02-09T10:23:03.750Z,68.58
2018-02-09T10:25:32.862Z,68.37
2018-02-09T10:28:02.746Z,68.34
2018-02-09T10:30:31.845Z,68.42
2018-02-09T10:33:00.953Z,68.38
2018-02-09T10:35:30.041Z,68.38
2018-02-09T10:37:59.166Z,68.34
2018-02-09T10:40:29.020Z,67.46
2018-02-09T10:42:58.138Z,67.37
2018-02-09T10:45:27.243Z,67.68
2018-02-09T10:47:56.348Z,67.46
2018-02-09T10:50:26.234Z,67.53
2018-02-09T10:52:55.412Z,66.98
2018-02-09T10:55:24.522Z,67.20
2018-02-09T10:57:54.290Z,67.00
2018-02-09T11:00:28.826Z,67.03
2018-02-09T11:02:57.939Z,66.11
2018-02-09T11:05:27.060Z,65.88
2018-02-09T11:07:56.550Z,65.79
2018-02-09T11:10:31.310Z,66.36
2018-02-09T11:13:01.456Z,66.41
2018-02-09T11:15:31.314Z,65.98
2018-02-09T11:18:00.438Z,66.07
2018-02-09T11:20:29.565Z,66.12
2018-02-09T11:22:59.420Z,65.94
2018-02-09T11:25:28.521Z,65.62
2018-02-09T11:27:58.013Z,65.11
2018-02-09T11:30:27.221Z,64.64
2018-02-09T11:32:56.367Z,65.26
2018-02-09T11:35:25.441Z,65.23
2018-02-09T11:37:54.528Z,65.30
2018-02-09T11:40:23.634Z,65.72
2018-02-09T11:42:52.835Z,65.34
2018-02-09T11:45:21.948Z,65.30
2018-02-09T11:47:51.837Z,64.85
2018-02-09T11:50:21.712Z,64.98
2018-02-09T11:52:50.798Z,65.69
2018-02-09T11:55:20.889Z,65.34
2018-02-09T11:57:51.308Z,65.41
2018-02-09T12:00:20.558Z,65.78
2018-02-09T12:02:49.779Z,65.14
2018-02-09T12:05:18.873Z,64.20
2018-02-09T12:07:48.737Z,64.00
2018-02-09T12:10:46.117Z,63.96
2018-02-09T12:47:52.401Z,63.53
2018-02-09T12:50:21.803Z,63.55
2018-02-09T12:52:51.661Z,63.78
2018-02-09T12:55:20.772Z,63.74
2018-02-09T12:57:49.863Z,63.77
2018-02-09T13:00:19.042Z,63.42
2018-02-09T13:02:48.146Z,63.28
2018-02-09T13:05:17.266Z,63.13
2018-02-09T13:07:47.157Z,63.23
2018-02-09T13:10:16.291Z,63.13
2018-02-09T13:13:03.918Z,63.66
2018-02-09T13:15:33.054Z,63.38
2018-02-09T13:18:02.159Z,63.56
2018-02-09T13:20:31.258Z,63.45
2018-02-09T13:23:18.095Z,63.39
2018-02-09T13:25:48.738Z,63.41
2018-02-09T13:41:53.962Z,62.81
2018-02-09T13:44:23.093Z,62.37
2018-02-09T13:46:52.198Z,62.43
2018-02-09T13:49:22.065Z,62.70
2018-02-09T13:51:51.180Z,63.09
2018-02-09T13:54:21.119Z,62.94
2018-02-09T13:56:50.257Z,63.11
2018-02-09T13:59:19.369Z,62.80
2018-02-09T14:01:48.505Z,63.34
2018-02-09T14:04:18.374Z,63.51
2018-02-09T14:06:48.220Z,63.57
2018-02-09T14:09:18.155Z,63.63
2018-02-09T14:11:47.242Z,63.11
2018-02-09T14:14:17.115Z,63.55
2018-02-09T14:16:46.252Z,63.15
2018-02-09T14:19:16.130Z,63.74
2018-02-09T14:21:45.211Z,63.98
2018-02-09T14:24:15.026Z,64.10
2018-02-09T14:26:44.110Z,64.83
2018-02-09T14:29:13.215Z,65.67
2018-02-09T14:31:43.112Z,66.45
2018-02-09T14:34:12.247Z,66.87
2018-02-09T14:36:41.333Z,67.06
2018-02-09T14:39:10.459Z,67.22
2018-02-09T14:41:39.555Z,67.08
2018-02-09T14:44:08.682Z,66.99
2018-02-09T14:46:39.110Z,66.55
2018-02-09T14:49:08.807Z,66.52
2018-02-09T14:51:37.937Z,66.69
2018-02-09T14:54:07.165Z,67.08
2018-02-09T14:56:37.045Z,67.24
2018-02-09T14:59:06.149Z,67.72
2018-02-09T15:01:35.250Z,67.12
2018-02-09T15:04:04.369Z,67.00
2018-02-09T15:06:33.452Z,67.26
2018-02-09T15:09:02.598Z,67.05
2018-02-09T15:11:31.718Z,67.42
2018-02-09T15:14:00.834Z,66.25
2018-02-09T15:16:29.940Z,65.98
2018-02-09T15:18:59.077Z,66.22
2018-02-09T15:21:28.950Z,66.06
2018-02-09T15:23:58.075Z,66.26
2018-02-09T15:26:27.926Z,66.15
2018-02-09T15:28:57.071Z,66.00
2018-02-09T15:31:26.174Z,65.94
2018-02-09T15:33:55.301Z,66.06
2018-02-09T15:36:24.395Z,66.00
2018-02-09T15:38:53.604Z,65.27
2018-02-09T15:41:23.583Z,66.52
2018-02-09T15:43:53.460Z,66.82
2018-02-09T15:46:22.608Z,66.54
2018-02-09T15:48:52.484Z,66.75
2018-02-09T15:51:21.591Z,66.86
2018-02-09T15:53:50.715Z,66.33
2018-02-09T15:56:20.606Z,66.68
2018-02-09T15:58:49.740Z,67.31
2018-02-09T16:01:18.853Z,67.19
2018-02-09T16:03:48.519Z,67.57
2018-02-09T16:06:18.418Z,67.55
2018-02-09T16:08:47.503Z,67.50
2018-02-09T16:11:16.626Z,67.14
2018-02-09T16:13:45.727Z,67.06
2018-02-09T16:16:14.862Z,67.15
2018-02-09T16:18:43.946Z,67.29
2018-02-09T16:21:13.069Z,67.30
2018-02-09T16:23:42.243Z,67.43
2018-02-09T16:26:11.360Z,67.45
2018-02-09T16:28:40.452Z,67.54
2018-02-09T16:31:09.584Z,67.76
2018-02-09T16:33:39.058Z,67.87
2018-02-09T16:36:08.167Z,67.83
2018-02-09T16:38:37.344Z,67.64
2018-02-09T16:41:06.461Z,67.28
2018-02-09T16:43:35.586Z,67.58
2018-02-09T16:46:05.454Z,67.51
2018-02-09T16:48:34.592Z,67.55
2018-02-09T16:51:04.053Z,67.54
2018-02-09T16:53:33.313Z,67.68
2018-02-09T16:56:03.171Z,67.67
2018-02-09T16:58:32.834Z,67.47
2018-02-09T17:01:03.095Z,67.70
2018-02-09T17:03:33.046Z,67.55
2018-02-09T17:06:03.289Z,67.48
2018-02-09T17:08:34.134Z,67.82
2018-02-09T17:11:04.649Z,67.89
2018-02-09T17:13:33.748Z,67.95
2018-02-09T17:16:02.845Z,68.06
2018-02-09T17:18:32.756Z,68.16
2018-02-09T17:21:03.546Z,67.69
2018-02-09T17:23:34.122Z,67.66
2018-02-09T17:26:03.519Z,67.94
2018-02-09T17:28:33.410Z,68.16
2018-02-09T17:31:03.404Z,68.22
2018-02-09T17:33:32.507Z,68.32
2018-02-09T17:36:04.658Z,68.36
2018-02-09T17:38:35.527Z,68.42
2018-02-09T17:41:06.000Z,68.39
2018-02-09T17:43:35.874Z,68.49
2018-02-09T17:46:05.002Z,68.56
2018-02-09T17:48:34.135Z,68.38
2018-02-09T17:51:03.255Z,68.42
2018-02-09T17:53:32.385Z,68.40
2018-02-09T17:56:01.537Z,68.12
2018-02-09T17:58:30.651Z,67.85
2018-02-09T18:00:59.779Z,68.04
2018-02-09T18:03:28.898Z,68.10
2018-02-09T18:05:58.025Z,67.84
2018-02-09T18:08:27.150Z,67.47
2018-02-09T18:10:56.312Z,67.92
2018-02-09T18:13:25.434Z,68.13
2018-02-09T18:15:55.632Z,68.50
2018-02-09T18:18:25.385Z,68.91
2018-02-09T18:20:55.979Z,69.41
2018-02-09T18:23:26.488Z,69.73
2018-02-09T18:25:55.647Z,69.72
2018-02-09T18:28:26.423Z,69.58
2018-02-09T18:30:56.359Z,69.07
2018-02-09T18:33:25.478Z,68.98
2018-02-09T18:35:54.591Z,68.57
2018-02-09T18:38:23.724Z,68.71
2018-02-09T18:40:52.845Z,68.74
2018-02-09T18:43:21.971Z,69.73
2018-02-09T18:45:51.071Z,69.73
2018-02-09T18:48:20.178Z,69.69
2018-02-09T18:50:50.830Z,69.95
2018-02-09T18:53:19.910Z,70.24
2018-02-09T18:55:50.858Z,70.48
2018-02-09T18:58:19.966Z,70.47
2018-02-09T19:00:49.120Z,70.53
2018-02-09T19:03:18.222Z,70.60
2018-02-09T19:05:48.291Z,70.48
2018-02-09T19:08:17.411Z,70.40
2018-02-09T19:10:47.319Z,70.24
2018-02-09T19:13:17.939Z,69.95
2018-02-09T19:15:47.815Z,69.70
2018-02-09T19:18:24.159Z,70.08
2018-02-09T19:21:02.828Z,70.52
2018-02-09T19:23:31.966Z,70.46
2018-02-09T19:26:01.108Z,70.44
2018-02-09T19:28:31.837Z,70.44
2018-02-09T19:31:01.737Z,70.58
2018-02-09T19:33:30.860Z,70.49
2018-02-09T19:35:59.963Z,70.57
2018-02-09T19:38:29.114Z,70.45
2018-02-09T19:40:58.735Z,70.59
2018-02-09T19:43:27.860Z,70.69
2018-02-09T19:45:56.982Z,70.77
2018-02-09T19:48:26.970Z,70.82
2018-02-09T19:50:56.863Z,70.67
2018-02-09T19:53:25.988Z,70.87
2018-02-09T19:55:55.136Z,70.96
2018-02-09T19:58:24.258Z,71.26
2018-02-09T20:00:54.153Z,71.23
2018-02-09T20:03:23.318Z,71.39
2018-02-09T20:05:52.426Z,71.61
2018-02-09T20:08:21.562Z,71.64
2018-02-09T20:10:51.447Z,71.99
2018-02-09T20:13:22.077Z,72.05
2018-02-09T20:15:51.994Z,71.86
2018-02-09T20:18:21.110Z,71.83
2018-02-09T20:20:50.249Z,72.02
2018-02-09T20:23:19.362Z,72.12
2018-02-09T20:25:49.275Z,71.94
2018-02-09T20:28:19.197Z,71.79
2018-02-09T20:30:48.297Z,71.80
2018-02-09T20:33:17.412Z,71.96
2018-02-09T20:35:46.542Z,71.94
2018-02-09T20:38:15.677Z,72.01
2018-02-09T20:40:44.805Z,72.20
2018-02-09T20:43:13.941Z,72.18
2018-02-09T20:45:43.068Z,72.28
2018-02-09T20:48:12.185Z,72.41
2018-02-09T20:50:42.409Z,72.60
2018-02-09T20:53:11.536Z,72.58
2018-02-09T20:55:40.666Z,72.78
2018-02-09T20:58:09.788Z,72.91
2018-02-09T21:00:38.907Z,73.02
2018-02-09T21:03:08.031Z,73.31
2018-02-09T21:05:37.162Z,73.58
2018-02-09T21:08:06.285Z,73.65
2018-02-09T21:10:35.399Z,73.70
2018-02-09T21:13:05.301Z,73.53
2018-02-09T21:15:34.468Z,74.00
2018-02-09T21:18:03.567Z,74.06
2018-02-09T21:20:32.687Z,74.04
2018-02-09T21:23:01.828Z,74.72
2018-02-09T21:25:30.935Z,74.29
2018-02-09T21:28:00.072Z,74.45
2018-02-09T21:30:30.822Z,74.64
2018-02-09T21:32:59.961Z,74.61
2018-02-09T21:35:29.067Z,74.68
2018-02-09T21:37:58.212Z,74.39
2018-02-09T21:40:27.492Z,74.09
2018-02-09T21:42:56.603Z,74.36
2018-02-09T21:45:26.317Z,74.63
2018-02-09T21:47:55.523Z,74.43
2018-02-09T21:50:24.655Z,73.82
2018-02-09T21:52:54.996Z,73.98
2018-02-09T21:55:24.913Z,74.00
2018-02-09T21:57:54.039Z,74.10
2018-02-09T22:00:23.179Z,74.21
2018-02-09T22:02:52.322Z,74.37
2018-02-09T22:05:21.430Z,74.53
2018-02-09T22:07:50.548Z,74.78
2018-02-09T22:10:20.435Z,74.78
2018-02-09T22:12:49.568Z,74.93
2018-02-09T22:15:18.694Z,74.98
2018-02-09T22:17:47.802Z,75.03
2018-02-09T22:20:16.949Z,74.83
2018-02-09T22:22:46.840Z,74.81
2018-02-09T22:25:15.984Z,75.22
2018-02-09T22:27:45.857Z,75.16
2018-02-09T22:30:14.995Z,75.25
2018-02-09T22:32:44.102Z,75.32
2018-02-09T22:35:13.229Z,75.07
2018-02-09T22:37:42.350Z,74.98
2018-02-09T22:40:12.270Z,75.06
2018-02-09T22:42:42.146Z,74.95
2018-02-09T22:45:11.268Z,74.55
2018-02-09T22:47:40.394Z,73.89
2018-02-09T22:50:09.506Z,73.59
2018-02-09T22:52:38.614Z,73.57
2018-02-09T22:55:07.738Z,73.61
2018-02-09T22:57:38.230Z,73.41
2018-02-09T23:00:07.345Z,73.05
2018-02-09T23:02:36.488Z,72.78
2018-02-09T23:05:06.699Z,72.61
2018-02-09T23:07:36.562Z,72.98
2018-02-09T23:10:05.697Z,73.00
2018-02-09T23:12:34.801Z,73.36
2018-02-09T23:15:03.918Z,73.45
2018-02-09T23:17:33.850Z,73.55
2018-02-09T23:20:02.972Z,73.83
2018-02-09T23:22:32.851Z,74.17
2018-02-09T23:25:01.968Z,74.40
2018-02-09T23:27:31.091Z,74.64
2018-02-09T23:30:00.206Z,74.60
2018-02-09T23:32:30.112Z,74.41
2018-02-09T23:34:59.512Z,74.37
2018-02-09T23:37:28.605Z,73.79
2018-02-09T23:39:57.704Z,73.39
2018-02-09T23:42:26.834Z,73.15
2018-02-09T23:44:55.935Z,73.11
2018-02-09T23:47:25.046Z,73.23
2018-02-09T23:49:54.150Z,73.21
2018-02-09T23:52:24.041Z,73.00
2018-02-09T23:54:53.917Z,72.91
2018-02-09T23:57:23.041Z,72.98
2018-02-09T23:59:52.140Z,73.20
